Cortez, Florida
Current Conditions -  °F | °C
As of 7:53 PM on Monday 24 Nov 2014 (Local Time) from KSRQ Reporting Station
Clear Clear  
Wind Chill: 74°   Ceiling: Unl
Heat Index: 74°   Visibility: 10mi
Dew Point: 73°   Wind: 9mph
Humidity: 97%   Direction: 180°S
Pressure: 29.97"   Gusts: NA
Location:  27.47°N, 82.67°W
Report Text: KSRQ 250053Z AUTO 18008KT 10SM CLR 23/23 A2997 RMK AO2 SLP148 T02330228
Loading
Personal Weather Stations






























Interactive Weather Map New forecast layout! Learn more

10-Day Weather Forecast

Advertisements
Track Severe Weather on mobile